Time;durP1;ratioP1;P1;durP2;ratioP2;P2;SDS_P1;SDS_P2;PMS_P1;PMS_P2;Temp;Humidity;BMP_temperature;BMP_pressure;BME280_temperature;BME280_humidity;BME280_pressure;Samples;Min_cycle;Max_cycle;Signal;HPM_P1;HPM_P2
2021/03/17 00:01:08;;;;;;;;;;;;;;;;;;4870949;29;20055;-87
2021/03/17 00:03:35;;;;;;;18.42;5.50;;;;;;;;;;4909926;28;19949;-87
2021/03/17 00:06:01;;;;;;;19.50;5.05;;;;;;;;;;4925003;28;20047;-87
2021/03/17 00:08:27;;;;;;;16.45;4.72;;;;;;;;;;4904450;28;20027;-86
2021/03/17 00:11:02;;;;;;;15.70;4.55;;;;;;;;;;4895354;29;20040;-86
2021/03/17 00:13:30;;;;;;;17.40;4.90;;;;;;;;;;4897099;29;20739;-86
2021/03/17 00:15:59;;;;;;;18.52;4.72;;;;;;;;;;4896425;28;20039;-86
2021/03/17 00:18:27;;;;;;;13.25;3.97;;;;;;;;;;4905063;28;20028;-87
2021/03/17 00:20:54;;;;;;;21.23;8.77;;;;;;;;;;4906973;28;20027;-87
2021/03/17 00:23:22;;;;;;;25.20;13.18;;;;;;;;;;4920793;28;20058;-87
2021/03/17 00:25:48;;;;;;;20.33;7.47;;;;;;;;;;4908528;28;20798;-86
2021/03/17 00:28:14;;;;;;;23.95;10.20;;;;;;;;;;4913145;28;20055;-86
2021/03/17 00:30:41;;;;;;;23.35;10.23;;;;;;;;;;4917046;28;20052;-87
2021/03/17 00:33:10;;;;;;;34.22;18.35;;;;;;;;;;4912605;28;20034;-86
2021/03/17 00:35:39;;;;;;;57.88;34.35;;;;;;;;;;4919586;28;20663;-86
2021/03/17 00:38:07;;;;;;;52.75;29.13;;;;;;;;;;4918438;28;21666;-86
2021/03/17 00:40:33;;;;;;;37.40;18.98;;;;;;;;;;4909697;28;20039;-86
2021/03/17 00:43:00;;;;;;;31.23;13.32;;;;;;;;;;4924800;28;20044;-87
2021/03/17 00:45:27;;;;;;;26.83;13.20;;;;;;;;;;4924264;28;20040;-85
2021/03/17 00:47:54;;;;;;;21.88;7.13;;;;;;;;;;4907833;28;20186;-87
2021/03/17 00:50:22;;;;;;;18.23;6.38;;;;;;;;;;4930179;28;20066;-86
2021/03/17 00:52:48;;;;;;;17.55;5.95;;;;;;;;;;4906216;28;20110;-85
2021/03/17 00:55:15;;;;;;;19.33;5.40;;;;;;;;;;4912569;28;20035;-85
2021/03/17 00:57:41;;;;;;;16.75;5.20;;;;;;;;;;4912506;29;20047;-86
2021/03/17 01:00:09;;;;;;;;;;;;;;;;;;4912530;28;20032;-85
2021/03/17 01:02:35;;;;;;;21.10;7.57;;;;;;;;;;4912362;28;19957;-86
2021/03/17 01:05:01;;;;;;;19.00;7.63;;;;;;;;;;4910084;28;20091;-86
2021/03/17 01:07:27;;;;;;;20.00;8.38;;;;;;;;;;4928671;28;20077;-88
2021/03/17 01:09:55;;;;;;;21.75;8.70;;;;;;;;;;4911995;28;20039;-87
2021/03/17 01:12:25;;;;;;;17.52;7.90;;;;;;;;;;4914362;28;20039;-86
2021/03/17 01:14:52;;;;;;;24.00;12.63;;;;;;;;;;4911022;28;20051;-86
2021/03/17 01:17:20;;;;;;;22.08;8.85;;;;;;;;;;4913703;28;20046;-86
2021/03/17 01:19:46;;;;;;;17.02;5.00;;;;;;;;;;4920490;28;20043;-89
2021/03/17 01:22:13;;;;;;;17.92;5.60;;;;;;;;;;4889915;29;20043;-87
2021/03/17 01:24:41;;;;;;;16.42;5.70;;;;;;;;;;4903524;28;20037;-86
2021/03/17 01:27:07;;;;;;;16.13;6.75;;;;;;;;;;4915989;28;20217;-86
2021/03/17 01:29:33;;;;;;;14.95;4.93;;;;;;;;;;4883532;28;20046;-89
2021/03/17 01:32:01;;;;;;;16.63;4.05;;;;;;;;;;4931327;28;20050;-88
2021/03/17 01:34:28;;;;;;;14.55;4.28;;;;;;;;;;4932285;28;20036;-88
2021/03/17 01:36:55;;;;;;;15.43;4.35;;;;;;;;;;4907020;28;20123;-86
2021/03/17 01:39:21;;;;;;;17.55;6.05;;;;;;;;;;4900689;29;20042;-87
2021/03/17 01:41:48;;;;;;;16.33;4.47;;;;;;;;;;4931570;28;20039;-87
2021/03/17 01:44:14;;;;;;;16.50;5.57;;;;;;;;;;4915900;28;20046;-87
2021/03/17 01:46:40;;;;;;;12.38;3.55;;;;;;;;;;4921519;28;20799;-88
2021/03/17 01:49:06;;;;;;;12.43;4.40;;;;;;;;;;4927901;28;20048;-87
2021/03/17 01:51:33;;;;;;;14.63;4.15;;;;;;;;;;4922018;28;20082;-87
2021/03/17 01:53:59;;;;;;;15.50;4.68;;;;;;;;;;4920006;28;20032;-87
2021/03/17 01:56:27;;;;;;;16.60;4.68;;;;;;;;;;4919054;28;20080;-84
2021/03/17 01:58:55;;;;;;;16.05;4.30;;;;;;;;;;4910386;28;20090;-86
2021/03/17 02:01:22;;;;;;;13.80;4.18;;;;;;;;;;4911376;28;20122;-86
2021/03/17 02:03:50;;;;;;;13.80;4.75;;;;;;;;;;4926400;28;20038;-86
2021/03/17 02:06:16;;;;;;;14.55;4.88;;;;;;;;;;4957961;28;20045;-86
2021/03/17 02:08:45;;;;;;;13.82;4.97;;;;;;;;;;4937726;28;20103;-86
2021/03/17 02:11:12;;;;;;;15.88;5.03;;;;;;;;;;4929632;29;20051;-86
2021/03/17 02:13:43;;;;;;;13.32;4.32;;;;;;;;;;4934344;28;20043;-86
2021/03/17 02:16:15;;;;;;;11.77;4.25;;;;;;;;;;4923057;28;20043;-86
2021/03/17 02:19:00;;;;;;;12.80;4.88;;;;;;;;;;4942992;28;20127;-86
2021/03/17 02:21:45;;;;;;;14.40;4.22;;;;;;;;;;4925153;28;20323;-86
2021/03/17 02:24:30;;;;;;;13.15;4.97;;;;;;;;;;4929058;28;20446;-86
2021/03/17 02:27:15;;;;;;;11.82;4.07;;;;;;;;;;4887242;28;20036;-86
2021/03/17 02:30:07;;;;;;;14.48;4.40;;;;;;;;;;4931321;28;20056;-86
2021/03/17 02:32:37;;;;;;;12.65;4.00;;;;;;;;;;4907251;28;20043;-86
2021/03/17 02:35:08;;;;;;;11.43;3.47;;;;;;;;;;4925663;28;20038;-86
2021/03/17 02:37:38;;;;;;;15.52;5.43;;;;;;;;;;4926705;28;20870;-85
2021/03/17 02:40:17;;;;;;;12.30;3.85;;;;;;;;;;4906652;28;20207;-87
2021/03/17 02:42:50;;;;;;;13.90;4.10;;;;;;;;;;4923545;28;21000;-85
2021/03/17 02:45:24;;;;;;;18.15;7.53;;;;;;;;;;4935845;28;20039;-86
2021/03/17 02:47:53;;;;;;;12.10;3.63;;;;;;;;;;4928422;28;20042;-85
2021/03/17 02:50:19;;;;;;;12.90;3.53;;;;;;;;;;4919745;28;20042;-86
2021/03/17 02:52:45;;;;;;;;;;;;;;;;;;4919573;28;20046;-85
2021/03/17 02:55:13;;;;;;;9.85;3.28;;;;;;;;;;4915952;28;19919;-86
2021/03/17 02:57:41;;;;;;;15.05;3.75;;;;;;;;;;4933385;28;20031;-86
2021/03/17 03:00:08;;;;;;;9.32;3.30;;;;;;;;;;4919427;28;20032;-86
2021/03/17 03:02:35;;;;;;;8.38;2.88;;;;;;;;;;4915886;28;20039;-87
2021/03/17 03:05:03;;;;;;;10.18;2.88;;;;;;;;;;4918458;28;20496;-87
2021/03/17 03:07:31;;;;;;;11.43;3.22;;;;;;;;;;4904933;28;20050;-87
2021/03/17 03:09:57;;;;;;;10.57;3.17;;;;;;;;;;4912796;28;20182;-87
2021/03/17 03:12:25;;;;;;;13.80;3.38;;;;;;;;;;4920635;28;20035;-87
2021/03/17 03:14:52;;;;;;;11.20;3.65;;;;;;;;;;4933361;28;20032;-87
2021/03/17 03:17:19;;;;;;;13.00;5.00;;;;;;;;;;4897928;29;20133;-86
2021/03/17 03:19:48;;;;;;;11.38;4.10;;;;;;;;;;4930371;28;20463;-87
2021/03/17 03:22:15;;;;;;;13.38;3.83;;;;;;;;;;4937976;28;20040;-86
2021/03/17 03:24:43;;;;;;;10.95;2.95;;;;;;;;;;4917853;28;20066;-86
2021/03/17 03:27:09;;;;;;;12.07;3.38;;;;;;;;;;4915785;28;20571;-87
2021/03/17 03:29:35;;;;;;;;;;;;;;;;;;4930904;28;20038;-86
2021/03/17 03:32:06;;;;;;;7.75;2.83;;;;;;;;;;4933679;28;19918;-86
2021/03/17 03:34:32;;;;;;;11.63;3.33;;;;;;;;;;4934929;28;20031;-86
2021/03/17 03:36:59;;;;;;;11.00;3.55;;;;;;;;;;4928101;28;20075;-86
2021/03/17 03:39:26;;;;;;;11.50;3.53;;;;;;;;;;4914613;28;20039;-86
2021/03/17 03:41:54;;;;;;;10.52;3.10;;;;;;;;;;4935137;28;20035;-85
2021/03/17 03:44:21;;;;;;;10.27;3.00;;;;;;;;;;4929134;28;20039;-85
2021/03/17 03:46:48;;;;;;;11.88;3.65;;;;;;;;;;4936904;28;20047;-85
2021/03/17 03:49:15;;;;;;;12.80;4.10;;;;;;;;;;4898290;28;20413;-85
2021/03/17 03:51:44;;;;;;;10.85;3.05;;;;;;;;;;4911324;28;20056;-86
2021/03/17 03:54:34;;;;;;;10.05;2.80;;;;;;;;;;4932242;28;20411;-85
2021/03/17 03:57:00;;;;;;;9.45;2.97;;;;;;;;;;4884133;28;20047;-85
2021/03/17 03:59:29;;;;;;;12.13;2.85;;;;;;;;;;4917209;28;20042;-85
2021/03/17 04:01:59;;;;;;;9.68;2.65;;;;;;;;;;4904909;28;20050;-85
2021/03/17 04:04:29;;;;;;;7.82;1.95;;;;;;;;;;4917863;28;20035;-86
2021/03/17 04:06:56;;;;;;;11.10;2.92;;;;;;;;;;4900974;28;20051;-86
2021/03/17 04:09:26;;;;;;;9.15;2.83;;;;;;;;;;4926006;28;20089;-86
2021/03/17 04:11:57;;;;;;;9.27;2.97;;;;;;;;;;4927495;28;20046;-86
2021/03/17 04:14:23;;;;;;;9.18;3.10;;;;;;;;;;4913319;29;20067;-86
2021/03/17 04:16:54;;;;;;;8.35;2.80;;;;;;;;;;4913803;28;20064;-86
2021/03/17 04:19:24;;;;;;;8.07;2.50;;;;;;;;;;4908260;29;20040;-87
2021/03/17 04:21:53;;;;;;;8.95;2.65;;;;;;;;;;4905341;29;20040;-86
2021/03/17 04:24:21;;;;;;;10.10;2.90;;;;;;;;;;4911076;29;20054;-87
2021/03/17 04:26:48;;;;;;;10.43;2.97;;;;;;;;;;4906548;29;20039;-86
2021/03/17 04:29:15;;;;;;;9.18;2.40;;;;;;;;;;4917402;28;20111;-86
2021/03/17 04:31:43;;;;;;;10.82;2.80;;;;;;;;;;4919863;29;20363;-86
2021/03/17 04:34:09;;;;;;;10.02;2.63;;;;;;;;;;4911525;28;20043;-87
2021/03/17 04:36:35;;;;;;;8.40;2.30;;;;;;;;;;4917198;29;20032;-87
2021/03/17 04:39:01;;;;;;;7.80;2.13;;;;;;;;;;4916311;28;20139;-88
2021/03/17 04:41:28;;;;;;;8.77;2.03;;;;;;;;;;4913757;29;20040;-86
2021/03/17 04:43:54;;;;;;;9.68;2.25;;;;;;;;;;4914880;29;20099;-86
2021/03/17 04:46:22;;;;;;;9.55;2.45;;;;;;;;;;4910990;28;20137;-87
2021/03/17 04:48:50;;;;;;;8.20;2.53;;;;;;;;;;4902717;29;20131;-87
2021/03/17 04:51:18;;;;;;;11.68;2.35;;;;;;;;;;4909310;29;20086;-87
2021/03/17 04:53:49;;;;;;;8.98;2.42;;;;;;;;;;4911233;29;20036;-87
2021/03/17 04:56:16;;;;;;;8.40;2.60;;;;;;;;;;4912844;29;20165;-86
2021/03/17 04:58:42;;;;;;;8.25;2.55;;;;;;;;;;4922587;28;20818;-86
2021/03/17 05:01:12;;;;;;;9.20;2.45;;;;;;;;;;4895778;29;20035;-87
2021/03/17 05:03:41;;;;;;;10.60;2.45;;;;;;;;;;4904157;28;20032;-86
2021/03/17 05:06:07;;;;;;;8.63;2.72;;;;;;;;;;4910344;29;20518;-87
2021/03/17 05:08:46;;;;;;;10.10;2.30;;;;;;;;;;4916112;29;20051;-86
2021/03/17 05:11:16;;;;;;;10.77;2.45;;;;;;;;;;4914020;28;20071;-86
2021/03/17 05:13:44;;;;;;;10.70;3.17;;;;;;;;;;4909508;28;20043;-87
2021/03/17 05:16:11;;;;;;;10.05;3.20;;;;;;;;;;4906670;28;20404;-87
2021/03/17 05:18:38;;;;;;;10.10;3.40;;;;;;;;;;4932383;28;20036;-87
2021/03/17 05:21:05;;;;;;;12.73;3.40;;;;;;;;;;4926744;28;20046;-86
2021/03/17 05:23:32;;;;;;;10.23;3.13;;;;;;;;;;4915469;28;20539;-87
2021/03/17 05:25:59;;;;;;;8.40;2.50;;;;;;;;;;4913112;28;20038;-87
2021/03/17 05:28:26;;;;;;;10.52;3.40;;;;;;;;;;4919419;28;20043;-87
2021/03/17 05:30:53;;;;;;;11.77;3.00;;;;;;;;;;4917481;28;20052;-87
2021/03/17 05:33:25;;;;;;;12.43;3.28;;;;;;;;;;4920378;28;20041;-86
2021/03/17 05:35:52;;;;;;;12.95;3.50;;;;;;;;;;4936708;28;20012;-87
2021/03/17 05:38:18;;;;;;;11.55;2.90;;;;;;;;;;4938271;28;20035;-86
2021/03/17 05:40:44;;;;;;;12.50;3.72;;;;;;;;;;4954774;28;20031;-87
2021/03/17 05:43:10;;;;;;;;;;;;;;;;;;4938826;28;20055;-87
2021/03/17 05:45:39;;;;;;;11.93;3.50;;;;;;;;;;4948089;28;20009;-86
2021/03/17 05:48:06;;;;;;;9.57;2.83;;;;;;;;;;4931127;28;20027;-86
2021/03/17 05:50:33;;;;;;;11.38;3.20;;;;;;;;;;4905915;28;20052;-86
2021/03/17 05:53:00;;;;;;;9.32;2.83;;;;;;;;;;4916965;28;20140;-86
2021/03/17 05:55:28;;;;;;;13.07;3.00;;;;;;;;;;4920167;28;20027;-86
2021/03/17 05:58:00;;;;;;;13.00;3.40;;;;;;;;;;4897732;28;20165;-87
2021/03/17 06:00:28;;;;;;;9.75;3.60;;;;;;;;;;4894583;28;20158;-87
2021/03/17 06:02:58;;;;;;;14.45;4.65;;;;;;;;;;4925182;28;20028;-86
2021/03/17 06:05:24;;;;;;;13.30;3.55;;;;;;;;;;4917472;28;20044;-86
2021/03/17 06:08:16;;;;;;;10.55;3.40;;;;;;;;;;4912992;28;20031;-87
2021/03/17 06:10:42;;;;;;;11.40;3.10;;;;;;;;;;4911076;28;20399;-86
2021/03/17 06:13:08;;;;;;;;;;;;;;;;;;4893678;28;20048;-85
2021/03/17 06:15:36;;;;;;;9.50;2.85;;;;;;;;;;4903755;28;20004;-86
2021/03/17 06:18:23;;;;;;;10.88;3.20;;;;;;;;;;4916705;28;20090;-88
2021/03/17 06:20:54;;;;;;;14.90;3.88;;;;;;;;;;4911882;28;20051;-88
2021/03/17 06:23:26;;;;;;;13.20;3.88;;;;;;;;;;4932298;28;20031;-87
2021/03/17 06:25:53;;;;;;;12.73;4.00;;;;;;;;;;4927614;28;20031;-87
2021/03/17 06:28:22;;;;;;;13.13;4.13;;;;;;;;;;4896983;29;21069;-88
2021/03/17 06:30:49;;;;;;;11.35;3.15;;;;;;;;;;4878194;29;20051;-85
2021/03/17 06:33:16;;;;;;;11.75;4.07;;;;;;;;;;4881823;29;20382;-85
2021/03/17 06:35:42;;;;;;;16.35;5.50;;;;;;;;;;4847729;29;20608;-85
2021/03/17 06:38:20;;;;;;;15.93;5.18;;;;;;;;;;4876568;29;20045;-85
2021/03/17 06:40:55;;;;;;;15.32;4.78;;;;;;;;;;4878794;29;20047;-84
2021/03/17 06:43:21;;;;;;;17.60;4.72;;;;;;;;;;4871377;29;20782;-84
2021/03/17 06:45:47;;;;;;;14.98;5.03;;;;;;;;;;4871707;29;20503;-85
2021/03/17 06:48:24;;;;;;;12.32;4.07;;;;;;;;;;4882837;29;20589;-87
2021/03/17 06:51:02;;;;;;;12.15;3.38;;;;;;;;;;4877555;29;20044;-88
2021/03/17 06:53:47;;;;;;;10.88;3.28;;;;;;;;;;4874299;29;20105;-83
2021/03/17 06:56:27;;;;;;;10.15;3.00;;;;;;;;;;4872890;29;20084;-83
2021/03/17 06:58:59;;;;;;;11.25;2.88;;;;;;;;;;4867896;29;20043;-79
2021/03/17 07:01:26;;;;;;;12.55;2.40;;;;;;;;;;4862730;29;20753;-82
2021/03/17 07:04:12;;;;;;;10.68;3.05;;;;;;;;;;4854968;29;20051;-81
2021/03/17 07:06:40;;;;;;;10.55;1.95;;;;;;;;;;4867448;29;20043;-83
2021/03/17 07:09:27;;;;;;;12.18;2.45;;;;;;;;;;4863981;29;20096;-83
2021/03/17 07:12:05;;;;;;;13.07;2.75;;;;;;;;;;4829435;29;20050;-83
2021/03/17 07:14:45;;;;;;;17.70;3.10;;;;;;;;;;4872649;28;20089;-83
2021/03/17 07:17:31;;;;;;;13.13;2.47;;;;;;;;;;4903376;28;20035;-82
2021/03/17 07:20:01;;;;;;;20.02;3.58;;;;;;;;;;4906766;28;20043;-83
2021/03/17 07:22:33;;;;;;;14.10;2.38;;;;;;;;;;4925126;28;20042;-83
2021/03/17 07:25:04;;;;;;;9.07;2.03;;;;;;;;;;4907062;28;20068;-82
2021/03/17 07:27:31;;;;;;;9.85;2.08;;;;;;;;;;4924199;28;20063;-84
2021/03/17 07:30:01;;;;;;;7.70;1.75;;;;;;;;;;4906121;28;20098;-83
2021/03/17 07:32:50;;;;;;;11.50;2.22;;;;;;;;;;4912735;28;20828;-83
2021/03/17 07:35:25;;;;;;;9.32;2.10;;;;;;;;;;4912645;28;20043;-83
2021/03/17 07:38:11;;;;;;;11.60;2.17;;;;;;;;;;4902642;28;20063;-80
2021/03/17 07:40:38;;;;;;;14.18;2.58;;;;;;;;;;4921410;28;20062;-82
2021/03/17 07:43:05;;;;;;;9.43;2.17;;;;;;;;;;4913263;28;20089;-82
2021/03/17 07:45:33;;;;;;;13.63;2.40;;;;;;;;;;4920757;28;20086;-83
2021/03/17 07:48:00;;;;;;;11.00;2.30;;;;;;;;;;4909062;28;20036;-83
2021/03/17 07:50:26;;;;;;;9.05;2.38;;;;;;;;;;4920345;28;20122;-81
2021/03/17 07:52:54;;;;;;;11.30;2.28;;;;;;;;;;4905299;28;20043;-82
2021/03/17 07:55:20;;;;;;;8.85;2.03;;;;;;;;;;4925103;28;20040;-81
2021/03/17 07:57:46;;;;;;;11.80;3.28;;;;;;;;;;4920392;28;20574;-82
2021/03/17 08:00:13;;;;;;;16.38;7.13;;;;;;;;;;4907187;28;20042;-81
2021/03/17 08:02:38;;;;;;;;;;;;;;;;;;4905958;28;20066;-82
2021/03/17 08:05:05;;;;;;;12.65;4.18;;;;;;;;;;4919894;28;21063;-83
2021/03/17 08:07:31;;;;;;;15.38;3.70;;;;;;;;;;4905096;28;20388;-82
2021/03/17 08:09:59;;;;;;;14.93;4.22;;;;;;;;;;4920348;28;20039;-83
2021/03/17 08:12:25;;;;;;;11.65;3.03;;;;;;;;;;4905316;28;20042;-82
2021/03/17 08:14:52;;;;;;;12.93;4.25;;;;;;;;;;4922358;28;20138;-83
2021/03/17 08:17:34;;;;;;;14.48;3.30;;;;;;;;;;4919865;28;20086;-83
2021/03/17 08:20:18;;;;;;;10.80;3.30;;;;;;;;;;4911943;28;20810;-81
2021/03/17 08:22:45;;;;;;;11.07;3.30;;;;;;;;;;4923806;28;20044;-80
2021/03/17 08:25:12;;;;;;;14.98;4.15;;;;;;;;;;4914133;28;20503;-83
2021/03/17 08:27:38;;;;;;;13.52;3.97;;;;;;;;;;4905627;28;20039;-81
2021/03/17 08:30:04;;;;;;;;;;;;;;;;;;4921874;28;20110;-81
2021/03/17 08:32:50;;;;;;;10.43;2.53;;;;;;;;;;4897267;28;21558;-81
2021/03/17 08:35:17;;;;;;;14.30;3.13;;;;;;;;;;4924672;28;20041;-80
2021/03/17 08:37:47;;;;;;;10.75;3.00;;;;;;;;;;4915858;28;20062;-78
2021/03/17 08:40:35;;;;;;;10.48;2.67;;;;;;;;;;4896866;28;20042;-78
2021/03/17 08:43:21;;;;;;;14.00;3.00;;;;;;;;;;4894853;28;20072;-79
2021/03/17 08:45:48;;;;;;;13.30;2.83;;;;;;;;;;4909501;28;20046;-78
2021/03/17 08:48:14;;;;;;;11.70;2.83;;;;;;;;;;4916871;28;20796;-78
2021/03/17 08:50:48;;;;;;;14.70;2.90;;;;;;;;;;4899933;28;20040;-79
2021/03/17 08:53:34;;;;;;;14.23;3.40;;;;;;;;;;4895098;28;20484;-79
2021/03/17 08:56:00;;;;;;;13.82;3.70;;;;;;;;;;4918335;28;20043;-77
2021/03/17 08:58:26;;;;;;;19.77;6.40;;;;;;;;;;4918829;28;20032;-78
2021/03/17 09:00:57;;;;;;;14.27;4.30;;;;;;;;;;4910080;28;20039;-78
2021/03/17 09:03:32;;;;;;;16.38;5.40;;;;;;;;;;4914040;28;20078;-77
2021/03/17 09:06:06;;;;;;;15.68;7.10;;;;;;;;;;4902456;28;20038;-78
2021/03/17 09:08:51;;;;;;;18.90;7.55;;;;;;;;;;4906734;28;20036;-78
2021/03/17 09:11:46;;;;;;;18.73;6.55;;;;;;;;;;4897134;28;20044;-77
2021/03/17 09:14:20;;;;;;;12.85;3.97;;;;;;;;;;4829336;29;20048;-78
2021/03/17 09:17:06;;;;;;;15.23;5.30;;;;;;;;;;4833645;29;20068;-77
2021/03/17 09:19:52;;;;;;;14.73;5.87;;;;;;;;;;4819903;29;20398;-78
2021/03/17 09:22:35;;;;;;;15.05;4.85;;;;;;;;;;4831331;29;20280;-77
2021/03/17 09:25:11;;;;;;;11.63;3.33;;;;;;;;;;4828348;29;20545;-78
2021/03/17 09:28:05;;;;;;;10.90;2.95;;;;;;;;;;4838089;29;20093;-77
2021/03/17 09:30:54;;;;;;;10.95;2.80;;;;;;;;;;4837349;29;20607;-77
2021/03/17 09:33:41;;;;;;;9.50;2.38;;;;;;;;;;4850425;29;20033;-77
2021/03/17 09:36:08;;;;;;;9.98;2.25;;;;;;;;;;4836296;29;20136;-78
2021/03/17 09:38:37;;;;;;;12.45;2.20;;;;;;;;;;4844011;29;20619;-77
2021/03/17 09:41:13;;;;;;;9.43;1.95;;;;;;;;;;4808499;29;20053;-79
2021/03/17 09:43:52;;;;;;;12.23;2.13;;;;;;;;;;4834776;29;20053;-77
2021/03/17 09:46:24;;;;;;;8.48;1.95;;;;;;;;;;4796806;29;20414;-78
2021/03/17 09:48:51;;;;;;;10.57;2.25;;;;;;;;;;4824714;29;20041;-78
2021/03/17 09:51:19;;;;;;;10.50;2.25;;;;;;;;;;4898483;28;20849;-79
2021/03/17 09:53:50;;;;;;;9.02;1.92;;;;;;;;;;4919313;28;20039;-80
2021/03/17 09:56:16;;;;;;;7.53;1.88;;;;;;;;;;4912956;28;20038;-79
2021/03/17 09:58:42;;;;;;;9.70;2.13;;;;;;;;;;4920722;28;20043;-78
2021/03/17 10:01:10;;;;;;;9.63;2.42;;;;;;;;;;4898407;28;20048;-79
2021/03/17 10:03:36;;;;;;;8.30;1.67;;;;;;;;;;4909051;28;20643;-79
2021/03/17 10:06:06;;;;;;;8.60;2.00;;;;;;;;;;4903583;28;20145;-80
2021/03/17 10:08:34;;;;;;;8.75;2.40;;;;;;;;;;4886697;28;20042;-79
2021/03/17 10:11:01;;;;;;;8.90;2.38;;;;;;;;;;4888768;28;20060;-79
2021/03/17 10:13:27;;;;;;;8.90;2.65;;;;;;;;;;4901590;28;20055;-79
2021/03/17 10:15:54;;;;;;;9.75;2.70;;;;;;;;;;4910070;28;20063;-78
2021/03/17 10:18:21;;;;;;;7.45;2.00;;;;;;;;;;4911892;28;20036;-81
2021/03/17 10:20:47;;;;;;;9.48;2.38;;;;;;;;;;4911800;28;20395;-79
2021/03/17 10:23:22;;;;;;;11.35;2.53;;;;;;;;;;4927062;28;20089;-80
2021/03/17 10:25:49;;;;;;;7.75;2.03;;;;;;;;;;4905930;28;20039;-79
2021/03/17 10:28:15;;;;;;;12.18;2.92;;;;;;;;;;4919824;28;20090;-78
2021/03/17 10:30:43;;;;;;;9.70;2.47;;;;;;;;;;4919552;28;21052;-78
2021/03/17 10:33:10;;;;;;;7.20;1.90;;;;;;;;;;4919077;28;20035;-79
2021/03/17 10:35:37;;;;;;;7.38;1.75;;;;;;;;;;4928526;28;20832;-78
2021/03/17 10:38:04;;;;;;;7.25;1.88;;;;;;;;;;4906991;28;20036;-78
2021/03/17 10:40:30;;;;;;;11.05;1.80;;;;;;;;;;4909696;28;20428;-77
2021/03/17 10:43:06;;;;;;;7.25;1.52;;;;;;;;;;4897298;28;20058;-78
2021/03/17 10:45:33;;;;;;;8.15;2.00;;;;;;;;;;4902297;28;20395;-77
2021/03/17 10:48:09;;;;;;;7.30;1.70;;;;;;;;;;4916414;28;20038;-79
2021/03/17 10:50:35;;;;;;;;;;;;;;;;;;4903213;28;20505;-78
2021/03/17 10:53:14;;;;;;;8.90;2.40;;;;;;;;;;4901253;28;19922;-77
2021/03/17 10:55:40;;;;;;;10.25;2.63;;;;;;;;;;4919829;28;20031;-77
2021/03/17 10:58:10;;;;;;;6.85;1.92;;;;;;;;;;4898300;28;20031;-78
2021/03/17 11:00:37;;;;;;;7.60;1.83;;;;;;;;;;4902968;28;20621;-78
2021/03/17 11:03:03;;;;;;;7.47;1.63;;;;;;;;;;4913927;28;20127;-77
2021/03/17 11:05:30;;;;;;;7.07;1.80;;;;;;;;;;4904840;28;20118;-78
2021/03/17 11:08:08;;;;;;;6.03;1.40;;;;;;;;;;4901248;28;20037;-77
2021/03/17 11:10:56;;;;;;;5.68;1.40;;;;;;;;;;4900614;28;20039;-80
2021/03/17 11:13:25;;;;;;;6.32;1.55;;;;;;;;;;4897909;28;20163;-78
2021/03/17 11:15:55;;;;;;;6.15;1.30;;;;;;;;;;4883759;28;20490;-78
2021/03/17 11:18:23;;;;;;;6.10;1.70;;;;;;;;;;4896625;28;20023;-79
2021/03/17 11:20:50;;;;;;;5.60;1.40;;;;;;;;;;4884420;28;20077;-78
2021/03/17 11:23:17;;;;;;;5.40;1.08;;;;;;;;;;4858266;29;20119;-79
2021/03/17 11:25:43;;;;;;;7.10;1.25;;;;;;;;;;4904514;28;20443;-78
2021/03/17 11:28:13;;;;;;;6.03;1.30;;;;;;;;;;4898934;28;20142;-78
2021/03/17 11:30:40;;;;;;;7.82;1.50;;;;;;;;;;4916835;28;20522;-78
2021/03/17 11:33:09;;;;;;;5.65;1.10;;;;;;;;;;4902135;28;20118;-78
2021/03/17 11:35:35;;;;;;;4.70;1.02;;;;;;;;;;4900649;28;20127;-79
2021/03/17 11:38:01;;;;;;;6.25;1.45;;;;;;;;;;4919425;28;20043;-78
2021/03/17 11:40:27;;;;;;;5.55;1.30;;;;;;;;;;4913730;28;20047;-77
2021/03/17 11:42:53;;;;;;;5.10;1.35;;;;;;;;;;4912957;28;20049;-78
2021/03/17 11:45:19;;;;;;;5.55;1.60;;;;;;;;;;4902133;28;20134;-78
2021/03/17 11:47:46;;;;;;;5.50;1.40;;;;;;;;;;4917534;28;20036;-78
2021/03/17 11:50:12;;;;;;;7.10;1.35;;;;;;;;;;4904371;28;20067;-79
2021/03/17 11:52:38;;;;;;;7.82;1.38;;;;;;;;;;4903785;28;20119;-79
2021/03/17 11:55:05;;;;;;;4.38;1.00;;;;;;;;;;4909419;28;20126;-79
2021/03/17 11:57:31;;;;;;;5.63;1.30;;;;;;;;;;4916091;28;20039;-78
2021/03/17 11:59:57;;;;;;;6.05;1.40;;;;;;;;;;4895319;28;20031;-77
2021/03/17 12:02:23;;;;;;;7.22;1.45;;;;;;;;;;4920120;28;20992;-78
2021/03/17 12:04:50;;;;;;;10.60;1.42;;;;;;;;;;4896002;28;20419;-77
2021/03/17 12:07:16;;;;;;;6.32;1.13;;;;;;;;;;4903816;28;20036;-77
2021/03/17 12:09:42;;;;;;;5.57;1.20;;;;;;;;;;4902781;28;20437;-78
2021/03/17 12:12:09;;;;;;;5.57;1.30;;;;;;;;;;4914124;28;20134;-79
2021/03/17 12:14:35;;;;;;;5.85;1.40;;;;;;;;;;4916335;28;20043;-78
2021/03/17 12:17:01;;;;;;;6.55;1.58;;;;;;;;;;4914844;28;20036;-78
2021/03/17 12:19:27;;;;;;;6.10;1.17;;;;;;;;;;4905297;28;20138;-79
2021/03/17 12:21:53;;;;;;;6.10;1.38;;;;;;;;;;4900862;28;20412;-80
2021/03/17 12:24:20;;;;;;;8.98;1.70;;;;;;;;;;4921693;28;20191;-78
2021/03/17 12:26:46;;;;;;;4.45;1.00;;;;;;;;;;4892869;28;20039;-78
2021/03/17 12:29:12;;;;;;;4.35;1.02;;;;;;;;;;4915976;28;20043;-77
2021/03/17 12:31:38;;;;;;;5.63;1.10;;;;;;;;;;4897763;28;20052;-77
2021/03/17 12:34:05;;;;;;;5.15;1.48;;;;;;;;;;4911965;28;20047;-77
2021/03/17 12:36:33;;;;;;;7.68;1.60;;;;;;;;;;4894216;29;20369;-79
2021/03/17 12:38:59;;;;;;;7.80;1.30;;;;;;;;;;4902042;28;20094;-78
2021/03/17 12:41:25;;;;;;;5.28;1.40;;;;;;;;;;4884597;28;20044;-78
2021/03/17 12:43:53;;;;;;;4.28;1.20;;;;;;;;;;4914183;28;20503;-78
2021/03/17 12:46:19;;;;;;;5.85;1.38;;;;;;;;;;4895304;28;20064;-77
2021/03/17 12:48:50;;;;;;;6.88;1.40;;;;;;;;;;4915078;28;20036;-80
2021/03/17 12:51:18;;;;;;;5.00;1.30;;;;;;;;;;4915875;28;20077;-77
2021/03/17 12:53:48;;;;;;;4.72;1.10;;;;;;;;;;4893489;28;20043;-78
2021/03/17 12:56:15;;;;;;;5.25;1.20;;;;;;;;;;4885859;28;20050;-78
2021/03/17 12:58:41;;;;;;;4.25;0.90;;;;;;;;;;4912029;28;20621;-79
2021/03/17 13:01:07;;;;;;;4.75;1.10;;;;;;;;;;4898726;28;20043;-79
2021/03/17 13:03:34;;;;;;;4.88;1.08;;;;;;;;;;4904424;28;20020;-77
2021/03/17 13:06:00;;;;;;;3.50;1.00;;;;;;;;;;4906547;28;20050;-77
2021/03/17 13:08:26;;;;;;;5.03;1.27;;;;;;;;;;4917955;28;20065;-79
2021/03/17 13:10:52;;;;;;;4.72;1.20;;;;;;;;;;4910772;28;20047;-79
2021/03/17 13:13:18;;;;;;;5.45;1.30;;;;;;;;;;4917145;28;20628;-79
2021/03/17 13:15:47;;;;;;;3.50;1.10;;;;;;;;;;4921835;28;20046;-78
2021/03/17 13:18:13;;;;;;;6.40;1.23;;;;;;;;;;4901579;28;20019;-77
2021/03/17 13:20:39;;;;;;;6.22;1.00;;;;;;;;;;4908221;28;20047;-80
2021/03/17 13:23:06;;;;;;;5.50;1.27;;;;;;;;;;4889694;28;21422;-80
2021/03/17 13:25:32;;;;;;;3.95;1.10;;;;;;;;;;4905633;28;20039;-82
2021/03/17 13:28:00;;;;;;;5.88;1.00;;;;;;;;;;4912306;28;20058;-79
2021/03/17 13:30:29;;;;;;;4.25;1.10;;;;;;;;;;4923451;28;20480;-80
2021/03/17 13:32:58;;;;;;;3.80;1.00;;;;;;;;;;4924664;28;20398;-80
2021/03/17 13:35:26;;;;;;;4.00;0.93;;;;;;;;;;4908869;28;20118;-79
2021/03/17 13:37:52;;;;;;;4.35;1.00;;;;;;;;;;4901089;28;20109;-80
2021/03/17 13:40:19;;;;;;;3.92;1.13;;;;;;;;;;4927862;28;20067;-80
2021/03/17 13:42:46;;;;;;;3.70;1.20;;;;;;;;;;4904451;28;20079;-81
2021/03/17 13:45:15;;;;;;;4.60;1.05;;;;;;;;;;4920032;28;20033;-80
2021/03/17 13:47:42;;;;;;;5.95;1.20;;;;;;;;;;4886445;29;20043;-80
2021/03/17 13:50:11;;;;;;;3.22;0.90;;;;;;;;;;4911378;28;20510;-79
2021/03/17 13:52:39;;;;;;;3.13;0.90;;;;;;;;;;4925372;28;20422;-80
2021/03/17 13:55:08;;;;;;;5.03;1.08;;;;;;;;;;4901559;28;20655;-80
2021/03/17 13:57:36;;;;;;;3.42;0.73;;;;;;;;;;4904587;28;20024;-79
2021/03/17 14:00:05;;;;;;;4.00;0.80;;;;;;;;;;4918591;28;20049;-79
2021/03/17 14:02:31;;;;;;;4.65;0.90;;;;;;;;;;4907366;28;20585;-79
2021/03/17 14:04:57;;;;;;;3.00;0.80;;;;;;;;;;4899931;28;20039;-79
2021/03/17 14:07:25;;;;;;;3.78;0.88;;;;;;;;;;4907633;28;20031;-80
2021/03/17 14:09:51;;;;;;;1.60;0.52;;;;;;;;;;4898769;28;20043;-80
2021/03/17 14:12:17;;;;;;;4.72;1.00;;;;;;;;;;4922474;28;20039;-79
2021/03/17 14:14:44;;;;;;;4.18;0.70;;;;;;;;;;4905298;28;20126;-81
2021/03/17 14:17:10;;;;;;;2.55;0.80;;;;;;;;;;4913402;28;20050;-80
2021/03/17 14:19:36;;;;;;;2.92;0.77;;;;;;;;;;4904558;28;20038;-79
2021/03/17 14:22:02;;;;;;;6.00;1.17;;;;;;;;;;4916790;28;20031;-79
2021/03/17 14:24:28;;;;;;;3.53;0.77;;;;;;;;;;4916437;28;20170;-81
2021/03/17 14:26:54;;;;;;;2.17;0.65;;;;;;;;;;4919898;28;20027;-81
2021/03/17 14:29:21;;;;;;;5.47;1.20;;;;;;;;;;4915224;28;20748;-79
2021/03/17 14:31:48;;;;;;;5.50;1.10;;;;;;;;;;4916435;28;20051;-79
2021/03/17 14:34:14;;;;;;;4.00;1.00;;;;;;;;;;4917806;28;20153;-78
2021/03/17 14:36:40;;;;;;;7.00;0.90;;;;;;;;;;4916828;28;24036;-79
2021/03/17 14:39:07;;;;;;;3.92;1.00;;;;;;;;;;4899898;28;20323;-80
2021/03/17 14:41:33;;;;;;;5.57;1.00;;;;;;;;;;4901405;28;20152;-79
2021/03/17 14:43:59;;;;;;;3.85;0.90;;;;;;;;;;4902492;28;20582;-80
2021/03/17 14:46:25;;;;;;;5.35;0.90;;;;;;;;;;4898641;28;20031;-82
2021/03/17 14:48:51;;;;;;;3.63;1.00;;;;;;;;;;4898171;28;20032;-81
2021/03/17 14:51:17;;;;;;;4.70;0.90;;;;;;;;;;4905646;28;20035;-79